Aplin, Arkansas
Current Conditions -  °F | °C
As of 11:53 AM on Thursday 18 Dec 2014 (Local Time) from KRUE Reporting Station
Overcast Overcast  
Wind Chill: 39°   Ceiling: 700
Heat Index: 39°   Visibility: 8mi
Dew Point: 36°   Wind: 3mph
Humidity: 89%   Direction: 100°E
Pressure: 30.21"   Gusts: NA
Location:  34.9067°N, 93.0072°W
Report Text: KRUE 181753Z AUTO 10003KT 8SM OVC007 04/02 A3021 RMK AO2 SLP229 T00390022 10039 20022 58010
Loading
Personal Weather Stations






























Interactive Weather Map New forecast layout! Learn more

10-Day Weather Forecast

Advertisements
Track Severe Weather on mobile